sensor_id;sensor_type;location;lat;lon;timestamp;pressure;altitude;pressure_sealevel;temperature;humidity
5755;BME280;2902;42.130;24.732;2023-02-16T00:01:16;100876.47;;;4.30;69.75
5755;BME280;2902;42.130;24.732;2023-02-16T00:03:44;100885.56;;;4.37;70.12
5755;BME280;2902;42.130;24.732;2023-02-16T00:06:11;100881.22;;;4.47;70.31
5755;BME280;2902;42.130;24.732;2023-02-16T00:08:41;100881.44;;;4.55;69.52
5755;BME280;2902;42.130;24.732;2023-02-16T00:11:13;100885.41;;;4.49;69.88
5755;BME280;2902;42.130;24.732;2023-02-16T00:14:02;100885.41;;;4.49;70.08
5755;BME280;2902;42.130;24.732;2023-02-16T00:16:29;100840.63;;;4.29;70.40
5755;BME280;2902;42.130;24.732;2023-02-16T00:18:56;100881.78;;;4.61;70.06
5755;BME280;2902;42.130;24.732;2023-02-16T00:21:22;100890.25;;;4.65;69.83
5755;BME280;2902;42.130;24.732;2023-02-16T00:23:49;100869.72;;;4.59;69.87
5755;BME280;2902;42.130;24.732;2023-02-16T00:26:18;100882.31;;;4.76;70.06
5755;BME280;2902;42.130;24.732;2023-02-16T00:28:48;100882.19;;;4.77;69.88
5755;BME280;2902;42.130;24.732;2023-02-16T00:31:22;100878.84;;;4.75;70.35
5755;BME280;2902;42.130;24.732;2023-02-16T00:33:52;100865.69;;;4.75;70.04
5755;BME280;2902;42.130;24.732;2023-02-16T00:36:19;100866.16;;;4.80;69.17
5755;BME280;2902;42.130;24.732;2023-02-16T00:38:46;100854.59;;;4.72;69.79
5755;BME280;2902;42.130;24.732;2023-02-16T00:41:17;100874.78;;;4.71;69.88
5755;BME280;2902;42.130;24.732;2023-02-16T00:44:15;100868.94;;;4.68;70.50
5755;BME280;2902;42.130;24.732;2023-02-16T00:46:45;100870.63;;;4.69;69.77
5755;BME280;2902;42.130;24.732;2023-02-16T00:49:13;100835.16;;;4.52;70.38
5755;BME280;2902;42.130;24.732;2023-02-16T00:51:40;100792.69;;;4.25;70.80
5755;BME280;2902;42.130;24.732;2023-02-16T00:54:07;100850.94;;;4.63;70.65
5755;BME280;2902;42.130;24.732;2023-02-16T00:56:34;100873.97;;;4.71;69.88
5755;BME280;2902;42.130;24.732;2023-02-16T00:59:01;100868.13;;;4.67;70.14
5755;BME280;2902;42.130;24.732;2023-02-16T01:01:31;100862.91;;;4.56;70.79
5755;BME280;2902;42.130;24.732;2023-02-16T01:04:00;100864.00;;;4.43;71.87
5755;BME280;2902;42.130;24.732;2023-02-16T01:06:28;100863.44;;;4.39;71.81
5755;BME280;2902;42.130;24.732;2023-02-16T01:09:13;100865.22;;;4.28;72.60
5755;BME280;2902;42.130;24.732;2023-02-16T01:11:58;100868.94;;;4.36;72.70
5755;BME280;2902;42.130;24.732;2023-02-16T01:14:25;100871.44;;;4.38;72.07
5755;BME280;2902;42.130;24.732;2023-02-16T01:16:52;100871.06;;;4.42;72.06
5755;BME280;2902;42.130;24.732;2023-02-16T01:19:20;100847.44;;;4.31;71.62
5755;BME280;2902;42.130;24.732;2023-02-16T01:21:46;100866.19;;;4.38;71.58
5755;BME280;2902;42.130;24.732;2023-02-16T01:24:13;100873.28;;;4.26;72.44
5755;BME280;2902;42.130;24.732;2023-02-16T01:26:43;100872.03;;;4.30;73.02
5755;BME280;2902;42.130;24.732;2023-02-16T01:29:14;100863.22;;;4.31;72.59
5755;BME280;2902;42.130;24.732;2023-02-16T01:31:42;100843.03;;;4.21;72.48
5755;BME280;2902;42.130;24.732;2023-02-16T01:34:09;100864.53;;;4.37;72.05
5755;BME280;2902;42.130;24.732;2023-02-16T01:36:38;100861.50;;;4.41;71.34
5755;BME280;2902;42.130;24.732;2023-02-16T01:39:06;100861.75;;;4.38;71.75
5755;BME280;2902;42.130;24.732;2023-02-16T01:44:33;100851.00;;;4.30;71.45
5755;BME280;2902;42.130;24.732;2023-02-16T01:47:05;100853.56;;;4.21;71.14
5755;BME280;2902;42.130;24.732;2023-02-16T01:49:32;100859.63;;;4.21;70.95
5755;BME280;2902;42.130;24.732;2023-02-16T01:52:05;100864.66;;;4.13;71.40
5755;BME280;2902;42.130;24.732;2023-02-16T01:54:40;100864.47;;;3.94;71.28
5755;BME280;2902;42.130;24.732;2023-02-16T01:57:19;100861.34;;;3.89;72.55
5755;BME280;2902;42.130;24.732;2023-02-16T02:00:11;100843.78;;;3.79;72.59
5755;BME280;2902;42.130;24.732;2023-02-16T02:02:40;100857.78;;;3.90;72.06
5755;BME280;2902;42.130;24.732;2023-02-16T02:05:18;100856.81;;;3.91;72.21
5755;BME280;2902;42.130;24.732;2023-02-16T02:08:10;100863.97;;;3.89;72.43
5755;BME280;2902;42.130;24.732;2023-02-16T02:10:46;100858.47;;;3.92;72.07
5755;BME280;2902;42.130;24.732;2023-02-16T02:13:19;100861.00;;;3.94;72.14
5755;BME280;2902;42.130;24.732;2023-02-16T02:15:47;100849.16;;;3.88;71.86
5755;BME280;2902;42.130;24.732;2023-02-16T02:18:14;100858.72;;;3.89;72.62
5755;BME280;2902;42.130;24.732;2023-02-16T02:20:51;100843.44;;;3.83;71.26
5755;BME280;2902;42.130;24.732;2023-02-16T02:23:51;100855.88;;;3.81;72.05
5755;BME280;2902;42.130;24.732;2023-02-16T02:26:52;100856.09;;;3.78;71.82
5755;BME280;2902;42.130;24.732;2023-02-16T02:29:46;100859.69;;;3.77;72.05
5755;BME280;2902;42.130;24.732;2023-02-16T02:32:25;100850.50;;;3.72;71.32
5755;BME280;2902;42.130;24.732;2023-02-16T02:35:13;100846.31;;;3.69;71.95
5755;BME280;2902;42.130;24.732;2023-02-16T02:37:49;100853.69;;;3.64;71.90
5755;BME280;2902;42.130;24.732;2023-02-16T02:40:26;100856.22;;;3.66;71.78
5755;BME280;2902;42.130;24.732;2023-02-16T02:43:03;100864.19;;;3.64;71.61
5755;BME280;2902;42.130;24.732;2023-02-16T02:45:35;100869.09;;;3.58;72.04
5755;BME280;2902;42.130;24.732;2023-02-16T02:48:05;100863.38;;;3.53;73.13
5755;BME280;2902;42.130;24.732;2023-02-16T02:50:42;100867.06;;;3.50;72.64
5755;BME280;2902;42.130;24.732;2023-02-16T02:53:31;100869.94;;;3.36;73.59
5755;BME280;2902;42.130;24.732;2023-02-16T02:56:00;100864.16;;;3.31;74.09
5755;BME280;2902;42.130;24.732;2023-02-16T02:58:49;100869.16;;;3.23;74.24
5755;BME280;2902;42.130;24.732;2023-02-16T03:01:39;100866.66;;;3.22;74.34
5755;BME280;2902;42.130;24.732;2023-02-16T03:04:10;100872.75;;;3.22;74.06
5755;BME280;2902;42.130;24.732;2023-02-16T03:06:41;100872.03;;;3.20;74.20
5755;BME280;2902;42.130;24.732;2023-02-16T03:09:10;100877.50;;;3.17;73.72
5755;BME280;2902;42.130;24.732;2023-02-16T03:11:39;100868.31;;;3.12;73.73
5755;BME280;2902;42.130;24.732;2023-02-16T03:14:28;100868.63;;;3.07;74.71
5755;BME280;2902;42.130;24.732;2023-02-16T03:16:59;100863.38;;;3.07;74.68
5755;BME280;2902;42.130;24.732;2023-02-16T03:19:47;100868.38;;;2.99;74.81
5755;BME280;2902;42.130;24.732;2023-02-16T03:22:33;100869.66;;;2.83;75.08
5755;BME280;2902;42.130;24.732;2023-02-16T03:25:18;100817.00;;;2.39;74.91
5755;BME280;2902;42.130;24.732;2023-02-16T03:28:05;100865.34;;;2.58;76.41
5755;BME280;2902;42.130;24.732;2023-02-16T03:30:54;100859.19;;;2.59;75.61
5755;BME280;2902;42.130;24.732;2023-02-16T03:33:22;100863.47;;;2.60;75.88
5755;BME280;2902;42.130;24.732;2023-02-16T03:35:49;100861.56;;;2.62;75.72
5755;BME280;2902;42.130;24.732;2023-02-16T03:38:17;100858.00;;;2.63;75.57
5755;BME280;2902;42.130;24.732;2023-02-16T03:40:46;100859.66;;;2.64;76.30
5755;BME280;2902;42.130;24.732;2023-02-16T03:43:14;100861.13;;;2.68;75.47
5755;BME280;2902;42.130;24.732;2023-02-16T03:45:42;100849.41;;;2.61;75.91
5755;BME280;2902;42.130;24.732;2023-02-16T03:48:11;100852.97;;;2.60;76.34
5755;BME280;2902;42.130;24.732;2023-02-16T03:50:37;100859.47;;;2.67;75.80
5755;BME280;2902;42.130;24.732;2023-02-16T03:53:04;100853.03;;;2.71;76.11
5755;BME280;2902;42.130;24.732;2023-02-16T03:55:34;100865.31;;;2.71;75.74
5755;BME280;2902;42.130;24.732;2023-02-16T03:58:02;100860.16;;;2.69;75.24
5755;BME280;2902;42.130;24.732;2023-02-16T04:00:29;100855.88;;;2.68;75.20
5755;BME280;2902;42.130;24.732;2023-02-16T04:02:56;100848.00;;;2.68;74.87
5755;BME280;2902;42.130;24.732;2023-02-16T04:05:24;100857.53;;;2.69;75.68
5755;BME280;2902;42.130;24.732;2023-02-16T04:07:51;100850.63;;;2.68;75.33
5755;BME280;2902;42.130;24.732;2023-02-16T04:10:18;100848.00;;;2.68;75.26
5755;BME280;2902;42.130;24.732;2023-02-16T04:12:46;100855.88;;;2.68;75.15
5755;BME280;2902;42.130;24.732;2023-02-16T04:15:13;100857.91;;;2.65;75.71
5755;BME280;2902;42.130;24.732;2023-02-16T04:17:40;100851.81;;;2.64;75.78
5755;BME280;2902;42.130;24.732;2023-02-16T04:20:09;100850.25;;;2.62;75.70
5755;BME280;2902;42.130;24.732;2023-02-16T04:22:38;100849.00;;;2.55;75.36
5755;BME280;2902;42.130;24.732;2023-02-16T04:25:05;100854.16;;;2.56;76.34
5755;BME280;2902;42.130;24.732;2023-02-16T04:27:33;100853.44;;;2.54;76.45
5755;BME280;2902;42.130;24.732;2023-02-16T04:30:00;100852.69;;;2.52;76.59
5755;BME280;2902;42.130;24.732;2023-02-16T04:32:27;100856.16;;;2.53;75.67
5755;BME280;2902;42.130;24.732;2023-02-16T04:34:54;100856.16;;;2.53;76.59
5755;BME280;2902;42.130;24.732;2023-02-16T04:37:21;100858.91;;;2.51;76.16
5755;BME280;2902;42.130;24.732;2023-02-16T04:39:49;100855.31;;;2.52;75.82
5755;BME280;2902;42.130;24.732;2023-02-16T04:42:16;100858.91;;;2.51;76.38
5755;BME280;2902;42.130;24.732;2023-02-16T04:44:43;100862.81;;;2.46;75.77
5755;BME280;2902;42.130;24.732;2023-02-16T04:47:10;100870.97;;;2.41;77.39
5755;BME280;2902;42.130;24.732;2023-02-16T04:49:37;100870.28;;;2.39;77.05
5755;BME280;2902;42.130;24.732;2023-02-16T04:52:04;100861.66;;;2.37;77.54
5755;BME280;2902;42.130;24.732;2023-02-16T04:54:32;100863.13;;;2.41;77.62
5755;BME280;2902;42.130;24.732;2023-02-16T04:57:00;100879.59;;;2.43;76.76
5755;BME280;2902;42.130;24.732;2023-02-16T04:59:27;100837.75;;;2.18;76.74
5755;BME280;2902;42.130;24.732;2023-02-16T05:01:53;100876.97;;;2.43;76.49
5755;BME280;2902;42.130;24.732;2023-02-16T05:04:22;100882.44;;;2.40;76.05
5755;BME280;2902;42.130;24.732;2023-02-16T05:06:48;100877.63;;;2.34;76.74
5755;BME280;2902;42.130;24.732;2023-02-16T05:09:15;100884.25;;;2.27;76.79
5755;BME280;2902;42.130;24.732;2023-02-16T05:11:42;100892.97;;;2.28;77.69
5755;BME280;2902;42.130;24.732;2023-02-16T05:14:30;100889.22;;;2.19;78.39
5755;BME280;2902;42.130;24.732;2023-02-16T05:17:12;100887.91;;;2.01;78.72
5755;BME280;2902;42.130;24.732;2023-02-16T05:19:40;100886.53;;;1.96;78.85
5755;BME280;2902;42.130;24.732;2023-02-16T05:22:07;100886.16;;;1.89;79.05
5755;BME280;2902;42.130;24.732;2023-02-16T05:24:34;100892.00;;;1.93;80.03
5755;BME280;2902;42.130;24.732;2023-02-16T05:27:02;100885.09;;;1.92;79.41
5755;BME280;2902;42.130;24.732;2023-02-16T05:29:31;100891.78;;;1.96;80.02
5755;BME280;2902;42.130;24.732;2023-02-16T05:31:58;100894.06;;;2.00;80.10
5755;BME280;2902;42.130;24.732;2023-02-16T05:34:25;100897.84;;;2.09;78.89
5755;BME280;2902;42.130;24.732;2023-02-16T05:36:52;100901.56;;;2.17;78.89
5755;BME280;2902;42.130;24.732;2023-02-16T05:39:19;100905.44;;;2.24;78.97
5755;BME280;2902;42.130;24.732;2023-02-16T05:41:46;100908.81;;;2.26;78.41
5755;BME280;2902;42.130;24.732;2023-02-16T05:44:14;100913.38;;;2.35;77.71
5755;BME280;2902;42.130;24.732;2023-02-16T05:46:43;100912.63;;;2.46;78.29
5755;BME280;2902;42.130;24.732;2023-02-16T05:49:11;100910.06;;;2.57;78.49
5755;BME280;2902;42.130;24.732;2023-02-16T05:51:38;100924.84;;;2.81;77.38
5755;BME280;2902;42.130;24.732;2023-02-16T05:54:06;100924.16;;;2.90;75.20
5755;BME280;2902;42.130;24.732;2023-02-16T05:56:34;100918.03;;;3.02;76.88
5755;BME280;2902;42.130;24.732;2023-02-16T05:59:01;100924.28;;;3.12;76.25
5755;BME280;2902;42.130;24.732;2023-02-16T06:01:28;100924.34;;;3.34;77.09
5755;BME280;2902;42.130;24.732;2023-02-16T06:03:56;100924.16;;;3.59;75.07
5755;BME280;2902;42.130;24.732;2023-02-16T06:06:23;100927.66;;;3.93;74.78
5755;BME280;2902;42.130;24.732;2023-02-16T06:08:49;100905.91;;;4.13;72.71
5755;BME280;2902;42.130;24.732;2023-02-16T06:11:16;100929.88;;;4.52;70.30
5755;BME280;2902;42.130;24.732;2023-02-16T06:14:01;100935.28;;;4.93;69.59
5755;BME280;2902;42.130;24.732;2023-02-16T06:16:29;100929.22;;;5.13;69.30
5755;BME280;2902;42.130;24.732;2023-02-16T06:18:58;100920.69;;;5.41;68.03
5755;BME280;2902;42.130;24.732;2023-02-16T06:21:26;100907.88;;;5.57;64.42
5755;BME280;2902;42.130;24.732;2023-02-16T06:23:53;100945.31;;;5.93;64.67
5755;BME280;2902;42.130;24.732;2023-02-16T06:26:20;100942.25;;;6.27;63.80
5755;BME280;2902;42.130;24.732;2023-02-16T06:28:47;100945.53;;;6.50;62.96
5755;BME280;2902;42.130;24.732;2023-02-16T06:31:14;100952.56;;;6.89;61.68
5755;BME280;2902;42.130;24.732;2023-02-16T06:33:40;100955.25;;;7.17;59.16
5755;BME280;2902;42.130;24.732;2023-02-16T06:36:10;100964.56;;;7.40;58.55
5755;BME280;2902;42.130;24.732;2023-02-16T06:38:36;100958.97;;;7.62;58.70
5755;BME280;2902;42.130;24.732;2023-02-16T06:41:04;100951.66;;;7.93;55.58
5755;BME280;2902;42.130;24.732;2023-02-16T06:43:31;100962.66;;;8.34;56.60
5755;BME280;2902;42.130;24.732;2023-02-16T06:45:57;100959.16;;;8.70;55.76
5755;BME280;2902;42.130;24.732;2023-02-16T06:48:24;100964.81;;;9.02;53.13
5755;BME280;2902;42.130;24.732;2023-02-16T06:50:51;100967.91;;;9.33;52.66
5755;BME280;2902;42.130;24.732;2023-02-16T06:53:19;100950.00;;;9.70;63.18
5755;BME280;2902;42.130;24.732;2023-02-16T06:55:48;100961.81;;;10.01;51.25
5755;BME280;2902;42.130;24.732;2023-02-16T06:58:15;100965.44;;;10.17;49.53
5755;BME280;2902;42.130;24.732;2023-02-16T07:00:42;100971.44;;;10.02;49.26
5755;BME280;2902;42.130;24.732;2023-02-16T07:03:09;100968.19;;;10.08;49.36
5755;BME280;2902;42.130;24.732;2023-02-16T07:05:36;100973.94;;;10.29;48.58
5755;BME280;2902;42.130;24.732;2023-02-16T07:08:03;100972.88;;;10.47;46.29
5755;BME280;2902;42.130;24.732;2023-02-16T07:10:31;100974.47;;;10.66;46.63
5755;BME280;2902;42.130;24.732;2023-02-16T07:12:57;100965.03;;;11.61;66.90
5755;BME280;2902;42.130;24.732;2023-02-16T07:15:24;100977.94;;;12.20;48.33
5755;BME280;2902;42.130;24.732;2023-02-16T07:17:51;100968.84;;;12.84;45.69
5755;BME280;2902;42.130;24.732;2023-02-16T07:20:21;100970.31;;;13.25;42.46
5755;BME280;2902;42.130;24.732;2023-02-16T07:22:47;100968.88;;;13.59;42.18
5755;BME280;2902;42.130;24.732;2023-02-16T07:25:14;100977.84;;;13.66;38.94
5755;BME280;2902;42.130;24.732;2023-02-16T07:27:42;100971.56;;;13.59;38.55
5755;BME280;2902;42.130;24.732;2023-02-16T07:30:10;100974.88;;;13.16;40.29
5755;BME280;2902;42.130;24.732;2023-02-16T07:32:37;100972.44;;;13.07;38.64
5755;BME280;2902;42.130;24.732;2023-02-16T07:35:04;100973.56;;;13.12;39.04
5755;BME280;2902;42.130;24.732;2023-02-16T07:37:31;100974.63;;;13.26;38.22
5755;BME280;2902;42.130;24.732;2023-02-16T07:39:59;100970.31;;;13.25;38.70
5755;BME280;2902;42.130;24.732;2023-02-16T07:42:28;100972.56;;;12.75;39.34
5755;BME280;2902;42.130;24.732;2023-02-16T07:44:58;100969.75;;;12.76;39.50
5755;BME280;2902;42.130;24.732;2023-02-16T07:47:24;100969.28;;;12.95;38.60
5755;BME280;2902;42.130;24.732;2023-02-16T07:49:51;100971.56;;;13.14;38.21
5755;BME280;2902;42.130;24.732;2023-02-16T07:52:18;100969.84;;;13.44;37.73
5755;BME280;2902;42.130;24.732;2023-02-16T07:54:45;100975.34;;;13.20;37.39
5755;BME280;2902;42.130;24.732;2023-02-16T07:57:11;100967.03;;;12.84;38.37
5755;BME280;2902;42.130;24.732;2023-02-16T07:59:38;100971.66;;;12.90;38.82
5755;BME280;2902;42.130;24.732;2023-02-16T08:02:14;100970.78;;;12.67;38.47
5755;BME280;2902;42.130;24.732;2023-02-16T08:04:40;100973.78;;;12.64;39.40
5755;BME280;2902;42.130;24.732;2023-02-16T08:07:10;100971.72;;;12.74;38.86
5755;BME280;2902;42.130;24.732;2023-02-16T08:09:37;100976.97;;;12.98;38.38
5755;BME280;2902;42.130;24.732;2023-02-16T08:12:04;100957.97;;;13.46;43.64
5755;BME280;2902;42.130;24.732;2023-02-16T08:14:33;100974.25;;;13.74;36.71
5755;BME280;2902;42.130;24.732;2023-02-16T08:16:59;100977.28;;;13.71;37.85
5755;BME280;2902;42.130;24.732;2023-02-16T08:19:28;100979.69;;;13.43;38.30
5755;BME280;2902;42.130;24.732;2023-02-16T08:21:54;100975.53;;;13.18;38.20
5755;BME280;2902;42.130;24.732;2023-02-16T08:24:21;100969.94;;;12.67;39.57
5755;BME280;2902;42.130;24.732;2023-02-16T08:26:49;100972.91;;;12.72;39.60
5755;BME280;2902;42.130;24.732;2023-02-16T08:29:18;100974.63;;;12.95;38.04
5755;BME280;2902;42.130;24.732;2023-02-16T08:31:46;100977.31;;;12.87;37.25
5755;BME280;2902;42.130;24.732;2023-02-16T08:34:13;100980.50;;;12.99;37.62
5755;BME280;2902;42.130;24.732;2023-02-16T08:36:43;100972.31;;;13.00;37.40
5755;BME280;2902;42.130;24.732;2023-02-16T08:39:12;100969.81;;;12.99;38.09
5755;BME280;2902;42.130;24.732;2023-02-16T08:41:41;100971.72;;;12.74;37.55
5755;BME280;2902;42.130;24.732;2023-02-16T08:44:09;100966.44;;;12.66;38.31
5755;BME280;2902;42.130;24.732;2023-02-16T08:46:38;100961.97;;;12.59;38.66
5755;BME280;2902;42.130;24.732;2023-02-16T08:49:06;100954.78;;;12.67;39.02
5755;BME280;2902;42.130;24.732;2023-02-16T08:51:35;100961.13;;;12.97;38.46
5755;BME280;2902;42.130;24.732;2023-02-16T08:54:05;100955.72;;;12.74;37.97
5755;BME280;2902;42.130;24.732;2023-02-16T08:56:33;100954.97;;;12.96;37.51
5755;BME280;2902;42.130;24.732;2023-02-16T08:59:00;100957.38;;;13.14;38.09
5755;BME280;2902;42.130;24.732;2023-02-16T09:01:27;100951.63;;;13.25;37.39
5755;BME280;2902;42.130;24.732;2023-02-16T09:03:55;100947.75;;;13.50;37.34
5755;BME280;2902;42.130;24.732;2023-02-16T09:06:21;100947.94;;;13.85;36.69
5755;BME280;2902;42.130;24.732;2023-02-16T09:08:51;100943.91;;;13.89;37.30
5755;BME280;2902;42.130;24.732;2023-02-16T09:11:20;100950.84;;;13.61;37.89
5755;BME280;2902;42.130;24.732;2023-02-16T09:13:47;100942.50;;;13.79;36.79
5755;BME280;2902;42.130;24.732;2023-02-16T09:16:16;100944.19;;;13.80;37.23
5755;BME280;2902;42.130;24.732;2023-02-16T09:18:44;100937.47;;;13.98;37.51
5755;BME280;2902;42.130;24.732;2023-02-16T09:21:14;100934.19;;;14.25;36.26
5755;BME280;2902;42.130;24.732;2023-02-16T09:23:43;100942.66;;;14.72;35.60
5755;BME280;2902;42.130;24.732;2023-02-16T09:26:12;100931.47;;;15.04;35.39
5755;BME280;2902;42.130;24.732;2023-02-16T09:28:41;100937.16;;;15.16;36.22
5755;BME280;2902;42.130;24.732;2023-02-16T09:31:09;100932.97;;;15.28;34.99
5755;BME280;2902;42.130;24.732;2023-02-16T09:33:36;100942.56;;;15.37;34.72
5755;BME280;2902;42.130;24.732;2023-02-16T09:36:04;100926.59;;;15.08;34.90
5755;BME280;2902;42.130;24.732;2023-02-16T09:38:31;100929.53;;;14.77;35.41
5755;BME280;2902;42.130;24.732;2023-02-16T09:40:59;100916.84;;;14.50;35.99
5755;BME280;2902;42.130;24.732;2023-02-16T09:43:38;100907.91;;;14.58;35.48
5755;BME280;2902;42.130;24.732;2023-02-16T09:46:12;100914.63;;;14.68;35.70
5755;BME280;2902;42.130;24.732;2023-02-16T09:48:43;100913.97;;;14.66;35.89
5755;BME280;2902;42.130;24.732;2023-02-16T09:51:16;100897.84;;;14.60;35.90
5755;BME280;2902;42.130;24.732;2023-02-16T09:53:46;100909.16;;;14.76;35.12
5755;BME280;2902;42.130;24.732;2023-02-16T09:56:25;100908.72;;;14.94;34.91
5755;BME280;2902;42.130;24.732;2023-02-16T09:58:57;100902.69;;;15.27;34.52
5755;BME280;2902;42.130;24.732;2023-02-16T10:01:32;100903.81;;;15.60;34.52
5755;BME280;2902;42.130;24.732;2023-02-16T10:04:13;100904.84;;;15.59;34.10
5755;BME280;2902;42.130;24.732;2023-02-16T10:06:52;100895.22;;;15.65;34.25
5755;BME280;2902;42.130;24.732;2023-02-16T10:09:25;100896.75;;;15.80;34.18
5755;BME280;2902;42.130;24.732;2023-02-16T10:11:56;100896.31;;;16.05;33.03
5755;BME280;2902;42.130;24.732;2023-02-16T10:14:31;100892.47;;;16.20;32.86
5755;BME280;2902;42.130;24.732;2023-02-16T10:17:07;100890.44;;;16.22;32.96
5755;BME280;2902;42.130;24.732;2023-02-16T10:19:39;100889.47;;;16.36;32.67
5755;BME280;2902;42.130;24.732;2023-02-16T10:22:12;100881.28;;;16.44;32.01
5755;BME280;2902;42.130;24.732;2023-02-16T10:24:45;100873.47;;;16.56;32.06
5755;BME280;2902;42.130;24.732;2023-02-16T10:27:16;100870.81;;;16.62;31.58
5755;BME280;2902;42.130;24.732;2023-02-16T10:29:43;100867.56;;;16.80;35.90
5755;BME280;2902;42.130;24.732;2023-02-16T10:32:17;100880.41;;;16.91;32.01
5755;BME280;2902;42.130;24.732;2023-02-16T10:34:50;100872.16;;;16.99;31.44
5755;BME280;2902;42.130;24.732;2023-02-16T10:37:42;100867.22;;;17.09;30.99
5755;BME280;2902;42.130;24.732;2023-02-16T10:40:22;100862.69;;;17.16;31.28
5755;BME280;2902;42.130;24.732;2023-02-16T10:42:56;100861.44;;;17.12;30.90
5755;BME280;2902;42.130;24.732;2023-02-16T10:45:28;100863.50;;;17.10;30.66
5755;BME280;2902;42.130;24.732;2023-02-16T10:47:58;100853.09;;;16.74;30.87
5755;BME280;2902;42.130;24.732;2023-02-16T10:50:28;100848.38;;;16.29;31.81
5755;BME280;2902;42.130;24.732;2023-02-16T10:53:00;100848.69;;;16.41;31.75
5755;BME280;2902;42.130;24.732;2023-02-16T10:55:30;100848.50;;;16.49;31.66
5755;BME280;2902;42.130;24.732;2023-02-16T10:57:59;100845.19;;;16.47;31.46
5755;BME280;2902;42.130;24.732;2023-02-16T11:00:36;100839.84;;;16.60;31.25
5755;BME280;2902;42.130;24.732;2023-02-16T11:03:09;100838.47;;;16.30;31.89
5755;BME280;2902;42.130;24.732;2023-02-16T11:05:39;100826.13;;;15.94;32.42
5755;BME280;2902;42.130;24.732;2023-02-16T11:08:07;100816.63;;;15.92;32.12
5755;BME280;2902;42.130;24.732;2023-02-16T11:10:44;100822.34;;;15.82;32.14
5755;BME280;2902;42.130;24.732;2023-02-16T11:13:22;100816.69;;;15.64;32.99
5755;BME280;2902;42.130;24.732;2023-02-16T11:15:52;100816.06;;;15.62;33.27
5755;BME280;2902;42.130;24.732;2023-02-16T11:18:30;100806.66;;;15.45;32.87
5755;BME280;2902;42.130;24.732;2023-02-16T11:20:58;100798.50;;;15.32;33.52
5755;BME280;2902;42.130;24.732;2023-02-16T11:23:27;100806.66;;;15.45;33.15
5755;BME280;2902;42.130;24.732;2023-02-16T11:25:57;100805.41;;;15.41;33.34
5755;BME280;2902;42.130;24.732;2023-02-16T11:28:26;100795.34;;;15.43;33.37
5755;BME280;2902;42.130;24.732;2023-02-16T11:31:00;100795.53;;;15.42;32.94
5755;BME280;2902;42.130;24.732;2023-02-16T11:33:29;100788.09;;;15.37;33.27
5755;BME280;2902;42.130;24.732;2023-02-16T11:35:56;100779.41;;;15.35;32.99
5755;BME280;2902;42.130;24.732;2023-02-16T11:38:27;100777.44;;;15.44;32.95
5755;BME280;2902;42.130;24.732;2023-02-16T11:40:55;100780.03;;;15.65;32.50
5755;BME280;2902;42.130;24.732;2023-02-16T11:43:25;100779.25;;;15.77;32.31
5755;BME280;2902;42.130;24.732;2023-02-16T11:45:59;100775.56;;;15.78;32.12
5755;BME280;2902;42.130;24.732;2023-02-16T11:48:30;100770.03;;;15.86;31.73
5755;BME280;2902;42.130;24.732;2023-02-16T11:51:00;100766.56;;;15.93;31.69
5755;BME280;2902;42.130;24.732;2023-02-16T11:53:32;100757.97;;;16.04;31.68
5755;BME280;2902;42.130;24.732;2023-02-16T11:56:12;100754.66;;;16.08;31.82
5755;BME280;2902;42.130;24.732;2023-02-16T11:58:39;100759.66;;;16.18;31.54
5755;BME280;2902;42.130;24.732;2023-02-16T12:01:16;100757.19;;;16.23;31.51
5755;BME280;2902;42.130;24.732;2023-02-16T12:03:58;100736.91;;;16.01;31.46
5755;BME280;2902;42.130;24.732;2023-02-16T12:06:42;100741.97;;;15.82;31.77
5755;BME280;2902;42.130;24.732;2023-02-16T12:09:20;100741.16;;;15.82;32.14
5755;BME280;2902;42.130;24.732;2023-02-16T12:11:58;100741.41;;;15.93;31.55
5755;BME280;2902;42.130;24.732;2023-02-16T12:14:39;100734.78;;;15.89;31.66
5755;BME280;2902;42.130;24.732;2023-02-16T12:17:18;100733.59;;;15.98;32.75
5755;BME280;2902;42.130;24.732;2023-02-16T12:19:50;100720.03;;;16.13;31.90
5755;BME280;2902;42.130;24.732;2023-02-16T12:22:28;100721.47;;;16.09;31.65
5755;BME280;2902;42.130;24.732;2023-02-16T12:25:11;100722.94;;;16.12;31.51
5755;BME280;2902;42.130;24.732;2023-02-16T12:27:48;100712.25;;;16.25;31.30
5755;BME280;2902;42.130;24.732;2023-02-16T12:30:25;100704.59;;;16.22;30.94
5755;BME280;2902;42.130;24.732;2023-02-16T12:33:05;100704.38;;;16.17;31.55
5755;BME280;2902;42.130;24.732;2023-02-16T12:35:49;100698.34;;;15.95;31.87
5755;BME280;2902;42.130;24.732;2023-02-16T12:38:31;100692.72;;;15.77;31.75
5755;BME280;2902;42.130;24.732;2023-02-16T12:41:06;100696.63;;;15.74;31.97
5755;BME280;2902;42.130;24.732;2023-02-16T12:43:39;100693.81;;;15.48;32.22
5755;BME280;2902;42.130;24.732;2023-02-16T12:46:12;100687.63;;;15.48;32.18
5755;BME280;2902;42.130;24.732;2023-02-16T12:48:47;100687.25;;;15.57;32.23
5755;BME280;2902;42.130;24.732;2023-02-16T12:51:20;100679.03;;;15.65;32.12
5755;BME280;2902;42.130;24.732;2023-02-16T12:53:53;100682.97;;;15.69;31.76
5755;BME280;2902;42.130;24.732;2023-02-16T12:56:28;100667.41;;;15.45;32.06
5755;BME280;2902;42.130;24.732;2023-02-16T12:59:06;100658.66;;;15.30;32.51
5755;BME280;2902;42.130;24.732;2023-02-16T13:01:39;100673.44;;;15.54;32.68
5755;BME280;2902;42.130;24.732;2023-02-16T13:04:14;100662.13;;;15.52;32.53
5755;BME280;2902;42.130;24.732;2023-02-16T13:06:49;100662.13;;;15.58;32.44
5755;BME280;2902;42.130;24.732;2023-02-16T13:09:28;100652.69;;;15.62;32.54
5755;BME280;2902;42.130;24.732;2023-02-16T13:12:03;100656.59;;;15.66;32.59
5755;BME280;2902;42.130;24.732;2023-02-16T13:14:34;100653.78;;;15.40;32.38
5755;BME280;2902;42.130;24.732;2023-02-16T13:17:11;100638.69;;;15.33;32.82
5755;BME280;2902;42.130;24.732;2023-02-16T13:19:41;100642.59;;;15.30;32.61
5755;BME280;2902;42.130;24.732;2023-02-16T13:22:40;100640.69;;;15.18;32.74
5755;BME280;2902;42.130;24.732;2023-02-16T13:25:39;100643.75;;;15.15;32.26
5755;BME280;2902;42.130;24.732;2023-02-16T13:28:25;100614.03;;;15.03;32.92
5755;BME280;2902;42.130;24.732;2023-02-16T13:31:09;100633.22;;;14.79;33.00